Time;durP1;ratioP1;P1;durP2;ratioP2;P2;SDS_P1;SDS_P2;PMS_P1;PMS_P2;Temp;Humidity;BMP_temperature;BMP_pressure;BME280_temperature;BME280_humidity;BME280_pressure;Samples;Min_cycle;Max_cycle;Signal;HPM_P1;HPM_P2
2021/11/29 00:00:12;;;;;;;2.10;1.15;;;;;;;;;;5052664;28;20017;-65
2021/11/29 00:02:38;;;;;;;2.55;1.27;;;;;;;;;;5053369;28;20024;-66
2021/11/29 00:05:05;;;;;;;2.00;1.20;;;;;;;;;;5052985;28;20017;-65
2021/11/29 00:07:30;;;;;;;1.58;1.27;;;;;;;;;;5050189;28;20122;-66
2021/11/29 00:09:56;;;;;;;3.83;1.70;;;;;;;;;;5051932;28;20482;-66
2021/11/29 00:12:23;;;;;;;2.05;1.15;;;;;;;;;;5052142;28;20037;-66
2021/11/29 00:14:49;;;;;;;1.50;1.20;;;;;;;;;;5052906;28;20025;-66
2021/11/29 00:17:15;;;;;;;1.90;1.20;;;;;;;;;;5052102;28;20028;-66
2021/11/29 00:19:41;;;;;;;1.25;1.08;;;;;;;;;;5052856;28;20098;-66
2021/11/29 00:22:08;;;;;;;3.10;1.48;;;;;;;;;;5052345;28;20374;-64
2021/11/29 00:24:34;;;;;;;1.33;1.10;;;;;;;;;;5052644;28;20033;-66
2021/11/29 00:27:00;;;;;;;2.58;1.40;;;;;;;;;;5052832;28;20100;-65
2021/11/29 00:29:26;;;;;;;1.13;0.95;;;;;;;;;;5052005;28;20021;-66
2021/11/29 00:31:52;;;;;;;1.85;1.20;;;;;;;;;;5052776;28;20075;-67
2021/11/29 00:34:20;;;;;;;1.73;1.08;;;;;;;;;;5052164;28;20021;-66
2021/11/29 00:36:46;;;;;;;2.22;1.15;;;;;;;;;;5052379;28;20540;-66
2021/11/29 00:39:11;;;;;;;1.60;1.42;;;;;;;;;;5050614;28;20095;-66
2021/11/29 00:41:37;;;;;;;1.27;0.95;;;;;;;;;;5051285;28;20025;-66
2021/11/29 00:44:04;;;;;;;1.42;1.08;;;;;;;;;;5052996;28;20037;-67
2021/11/29 00:46:30;;;;;;;1.40;1.10;;;;;;;;;;5053257;28;20036;-67
2021/11/29 00:48:56;;;;;;;1.38;1.05;;;;;;;;;;5053875;28;20029;-67
2021/11/29 00:51:22;;;;;;;2.08;1.23;;;;;;;;;;5052994;28;20029;-67
2021/11/29 00:53:48;;;;;;;1.27;1.00;;;;;;;;;;5053763;28;20032;-67
2021/11/29 00:56:15;;;;;;;2.05;1.42;;;;;;;;;;5053107;28;20068;-66
2021/11/29 00:58:41;;;;;;;1.25;0.98;;;;;;;;;;5051919;28;20021;-66
2021/11/29 01:01:07;;;;;;;1.48;0.98;;;;;;;;;;5054028;28;20378;-65
2021/11/29 01:03:35;;;;;;;2.05;1.33;;;;;;;;;;5053754;28;20027;-66
2021/11/29 01:06:01;;;;;;;1.40;1.10;;;;;;;;;;5053728;28;20028;-67
2021/11/29 01:08:27;;;;;;;1.80;1.48;;;;;;;;;;5052281;28;20021;-66
2021/11/29 01:10:53;;;;;;;2.10;1.42;;;;;;;;;;5053341;28;20056;-67
2021/11/29 01:13:19;;;;;;;1.23;1.10;;;;;;;;;;5052470;28;20035;-66
2021/11/29 01:15:45;;;;;;;2.03;1.55;;;;;;;;;;5053733;28;20415;-66
2021/11/29 01:18:11;;;;;;;1.73;1.20;;;;;;;;;;5052486;28;20100;-66
2021/11/29 01:20:39;;;;;;;1.50;1.30;;;;;;;;;;5053229;28;20021;-66
2021/11/29 01:23:05;;;;;;;1.65;1.20;;;;;;;;;;5052961;28;20075;-66
2021/11/29 01:25:32;;;;;;;1.67;1.20;;;;;;;;;;5052511;28;20028;-67
2021/11/29 01:27:58;;;;;;;1.75;1.10;;;;;;;;;;5053223;28;20025;-66
2021/11/29 01:30:24;;;;;;;1.88;1.40;;;;;;;;;;5052063;28;20021;-66
2021/11/29 01:32:50;;;;;;;1.75;1.30;;;;;;;;;;5053054;28;20116;-66
2021/11/29 01:35:16;;;;;;;1.83;1.70;;;;;;;;;;5052160;28;20434;-66
2021/11/29 01:37:42;;;;;;;2.03;1.17;;;;;;;;;;5052657;28;20080;-67
2021/11/29 01:40:14;;;;;;;1.42;1.30;;;;;;;;;;5052393;28;20104;-65
2021/11/29 01:42:59;;;;;;;2.28;1.25;;;;;;;;;;5051582;28;20021;-66
2021/11/29 01:45:26;;;;;;;2.47;1.65;;;;;;;;;;5051788;28;20151;-67
2021/11/29 01:47:52;;;;;;;1.77;1.50;;;;;;;;;;5052704;28;20048;-66
2021/11/29 01:50:18;;;;;;;1.10;0.93;;;;;;;;;;5051903;28;20366;-67
2021/11/29 01:52:44;;;;;;;2.08;1.25;;;;;;;;;;5052760;28;20052;-66
2021/11/29 01:55:10;;;;;;;1.67;1.20;;;;;;;;;;5051046;28;20471;-65
2021/11/29 01:57:36;;;;;;;3.13;1.20;;;;;;;;;;5052225;28;20032;-66
2021/11/29 02:00:03;;;;;;;3.38;1.38;;;;;;;;;;5052676;28;20407;-66
2021/11/29 02:02:29;;;;;;;2.63;1.35;;;;;;;;;;5052375;28;20195;-66
2021/11/29 02:04:59;;;;;;;1.92;1.05;;;;;;;;;;5052844;28;20119;-66
2021/11/29 02:07:25;;;;;;;2.50;1.33;;;;;;;;;;5051625;28;20025;-66
2021/11/29 02:09:51;;;;;;;1.80;1.20;;;;;;;;;;5051974;28;20044;-68
2021/11/29 02:12:19;;;;;;;1.90;1.48;;;;;;;;;;5051051;28;20424;-67
2021/11/29 02:14:46;;;;;;;1.90;1.30;;;;;;;;;;5052226;28;20068;-67
2021/11/29 02:17:13;;;;;;;1.33;1.10;;;;;;;;;;5051409;28;20545;-65
2021/11/29 02:19:40;;;;;;;2.05;1.50;;;;;;;;;;5052009;28;20090;-66
2021/11/29 02:22:06;;;;;;;3.22;1.27;;;;;;;;;;5051927;28;20410;-66
2021/11/29 02:24:32;;;;;;;2.22;1.48;;;;;;;;;;5050977;28;20592;-66
2021/11/29 02:26:58;;;;;;;1.63;1.35;;;;;;;;;;5051910;28;20021;-67
2021/11/29 02:29:24;;;;;;;1.50;1.20;;;;;;;;;;5051190;28;20086;-66
2021/11/29 02:31:50;;;;;;;1.70;1.30;;;;;;;;;;5052090;28;20524;-66
2021/11/29 02:34:18;;;;;;;2.13;1.42;;;;;;;;;;5051199;28;20032;-66
2021/11/29 02:36:44;;;;;;;1.65;1.35;;;;;;;;;;5052111;28;20545;-66
2021/11/29 02:39:11;;;;;;;1.27;1.17;;;;;;;;;;5051366;28;20474;-65
2021/11/29 02:41:38;;;;;;;1.42;1.20;;;;;;;;;;5051440;28;20037;-67
2021/11/29 02:44:04;;;;;;;1.58;1.25;;;;;;;;;;5051699;28;20033;-67
2021/11/29 02:46:30;;;;;;;2.28;1.25;;;;;;;;;;5051183;28;20073;-67
2021/11/29 02:48:57;;;;;;;1.77;1.27;;;;;;;;;;5051708;28;20028;-67
2021/11/29 02:51:25;;;;;;;2.20;1.30;;;;;;;;;;5050926;28;20437;-67
2021/11/29 02:53:53;;;;;;;1.25;1.00;;;;;;;;;;5051880;28;20523;-66
2021/11/29 02:56:19;;;;;;;3.03;1.70;;;;;;;;;;5051004;28;20033;-66
2021/11/29 02:58:45;;;;;;;1.50;1.30;;;;;;;;;;5051856;28;20029;-66
2021/11/29 03:01:11;;;;;;;1.33;1.13;;;;;;;;;;5051343;28;20474;-65
2021/11/29 03:03:51;;;;;;;2.25;1.00;;;;;;;;;;5051371;28;20029;-66
2021/11/29 03:06:19;;;;;;;2.17;1.30;;;;;;;;;;5050971;28;20375;-66
2021/11/29 03:08:46;;;;;;;1.60;1.48;;;;;;;;;;5050488;28;20029;-66
2021/11/29 03:11:13;;;;;;;1.75;1.20;;;;;;;;;;5051068;28;20029;-65
2021/11/29 03:13:39;;;;;;;1.75;1.50;;;;;;;;;;5051064;28;20033;-67
2021/11/29 03:16:05;;;;;;;1.98;1.50;;;;;;;;;;5051303;28;20021;-66
2021/11/29 03:18:32;;;;;;;2.53;1.88;;;;;;;;;;5050726;28;20025;-66
2021/11/29 03:20:58;;;;;;;1.35;1.25;;;;;;;;;;5051578;28;20029;-66
2021/11/29 03:23:24;;;;;;;1.67;1.30;;;;;;;;;;5053996;28;20020;-66
2021/11/29 03:25:50;;;;;;;2.05;1.05;;;;;;;;;;5055240;28;20366;-66
2021/11/29 03:28:16;;;;;;;2.08;1.38;;;;;;;;;;5054966;28;20025;-66
2021/11/29 03:30:42;;;;;;;1.88;1.30;;;;;;;;;;5054988;28;20029;-66
2021/11/29 03:33:08;;;;;;;2.08;1.38;;;;;;;;;;5055300;28;20036;-66
2021/11/29 03:35:36;;;;;;;1.63;1.13;;;;;;;;;;5054470;28;20021;-67
2021/11/29 03:38:03;;;;;;;1.60;1.23;;;;;;;;;;5054049;28;20469;-66
2021/11/29 03:40:29;;;;;;;2.70;1.60;;;;;;;;;;5053285;28;20028;-66
2021/11/29 03:42:56;;;;;;;1.67;1.30;;;;;;;;;;5054024;28;20013;-66
2021/11/29 03:45:22;;;;;;;1.60;1.35;;;;;;;;;;5053313;28;20037;-66
2021/11/29 03:47:48;;;;;;;2.30;1.35;;;;;;;;;;5053700;28;20471;-66
2021/11/29 03:50:15;;;;;;;4.13;1.52;;;;;;;;;;5052928;28;20064;-65
2021/11/29 03:52:41;;;;;;;1.67;1.52;;;;;;;;;;5053743;28;20024;-67
2021/11/29 03:55:07;;;;;;;1.90;1.25;;;;;;;;;;5053606;28;20029;-66
2021/11/29 03:57:33;;;;;;;1.30;1.10;;;;;;;;;;5052560;28;20669;-66
2021/11/29 03:59:59;;;;;;;1.55;1.30;;;;;;;;;;5053331;28;20118;-66
2021/11/29 04:02:27;;;;;;;2.28;1.35;;;;;;;;;;5053430;28;20343;-66
2021/11/29 04:04:53;;;;;;;1.67;1.33;;;;;;;;;;5053356;28;20025;-67
2021/11/29 04:07:20;;;;;;;1.90;1.48;;;;;;;;;;5053855;28;20116;-66
2021/11/29 04:09:46;;;;;;;1.30;1.17;;;;;;;;;;5054578;28;20466;-66
2021/11/29 04:12:12;;;;;;;1.50;1.40;;;;;;;;;;5054169;28;20071;-65
2021/11/29 04:14:38;;;;;;;1.50;1.25;;;;;;;;;;5054028;28;20029;-66
2021/11/29 04:17:05;;;;;;;2.00;1.38;;;;;;;;;;5054222;28;20443;-65
2021/11/29 04:19:34;;;;;;;1.35;1.20;;;;;;;;;;5053461;28;20060;-66
2021/11/29 04:22:00;;;;;;;1.98;1.50;;;;;;;;;;5054596;28;20489;-66
2021/11/29 04:24:26;;;;;;;2.03;1.50;;;;;;;;;;5053599;28;20028;-66
2021/11/29 04:26:55;;;;;;;2.20;1.30;;;;;;;;;;5054438;28;20023;-66
2021/11/29 04:29:27;;;;;;;2.20;1.35;;;;;;;;;;5053388;28;20083;-66
2021/11/29 04:31:53;;;;;;;2.28;1.77;;;;;;;;;;5054409;28;20057;-66
2021/11/29 04:34:19;;;;;;;1.77;1.35;;;;;;;;;;5052420;28;20116;-67
2021/11/29 04:36:45;;;;;;;2.05;1.70;;;;;;;;;;5053837;28;20053;-66
2021/11/29 04:39:11;;;;;;;1.83;1.48;;;;;;;;;;5053876;28;20056;-66
2021/11/29 04:41:37;;;;;;;1.50;1.40;;;;;;;;;;5053197;28;20025;-67
2021/11/29 04:44:04;;;;;;;1.95;1.55;;;;;;;;;;5053685;28;20420;-66
2021/11/29 04:46:30;;;;;;;1.95;1.50;;;;;;;;;;5052907;28;20509;-67
2021/11/29 04:48:56;;;;;;;1.65;1.38;;;;;;;;;;5054171;28;20029;-66
2021/11/29 04:51:22;;;;;;;1.45;1.35;;;;;;;;;;5052667;28;20068;-66
2021/11/29 04:53:48;;;;;;;1.73;1.40;;;;;;;;;;5053902;28;20035;-66
2021/11/29 04:56:14;;;;;;;1.73;1.23;;;;;;;;;;5053293;28;20032;-65
2021/11/29 04:58:40;;;;;;;1.70;1.40;;;;;;;;;;5053250;28;20052;-66
2021/11/29 05:01:06;;;;;;;1.58;1.20;;;;;;;;;;5053457;28;20067;-66
2021/11/29 05:03:32;;;;;;;2.33;1.48;;;;;;;;;;5052934;28;20035;-66
2021/11/29 05:05:58;;;;;;;1.88;1.45;;;;;;;;;;5053340;28;20017;-66
2021/11/29 05:08:24;;;;;;;2.15;1.80;;;;;;;;;;5052879;28;20073;-66
2021/11/29 05:10:50;;;;;;;2.70;1.27;;;;;;;;;;5053503;28;20057;-66
2021/11/29 05:13:18;;;;;;;1.80;1.50;;;;;;;;;;5052650;28;20063;-65
2021/11/29 05:15:44;;;;;;;1.80;1.30;;;;;;;;;;5053075;28;20025;-66
2021/11/29 05:18:10;;;;;;;1.23;1.13;;;;;;;;;;5053555;28;20132;-66
2021/11/29 05:20:36;;;;;;;1.67;1.30;;;;;;;;;;5052513;28;20100;-66
2021/11/29 05:23:02;;;;;;;2.17;1.50;;;;;;;;;;5053321;28;20110;-66
2021/11/29 05:25:28;;;;;;;2.08;1.33;;;;;;;;;;5052361;28;20024;-66
2021/11/29 05:27:54;;;;;;;1.88;1.33;;;;;;;;;;5053245;28;20108;-66
2021/11/29 05:30:20;;;;;;;1.80;1.38;;;;;;;;;;5052249;28;20110;-66
2021/11/29 05:32:48;;;;;;;1.50;1.30;;;;;;;;;;5052843;28;20025;-64
2021/11/29 05:35:14;;;;;;;1.52;1.27;;;;;;;;;;5052983;28;20033;-64
2021/11/29 05:37:40;;;;;;;2.15;1.48;;;;;;;;;;5052529;28;20048;-66
2021/11/29 05:40:06;;;;;;;1.58;1.20;;;;;;;;;;5052867;28;20025;-66
2021/11/29 05:42:33;;;;;;;1.70;1.33;;;;;;;;;;5052121;28;20039;-66
2021/11/29 05:44:59;;;;;;;1.60;1.30;;;;;;;;;;5052827;28;20510;-64
2021/11/29 05:47:25;;;;;;;2.85;1.25;;;;;;;;;;5051702;28;20033;-67
2021/11/29 05:49:51;;;;;;;2.08;1.40;;;;;;;;;;5052895;28;20029;-67
2021/11/29 05:52:17;;;;;;;2.22;1.48;;;;;;;;;;5052107;28;20028;-64
2021/11/29 05:54:43;;;;;;;2.10;1.33;;;;;;;;;;5052598;28;20061;-67
2021/11/29 05:57:09;;;;;;;2.35;1.48;;;;;;;;;;5052508;28;20056;-67
2021/11/29 05:59:35;;;;;;;1.48;1.27;;;;;;;;;;5051530;28;20029;-67
2021/11/29 06:02:01;;;;;;;1.73;1.45;;;;;;;;;;5052431;28;20095;-66
2021/11/29 06:04:27;;;;;;;1.33;1.13;;;;;;;;;;5050108;28;20021;-68
2021/11/29 06:06:54;;;;;;;1.40;1.30;;;;;;;;;;5052037;28;20029;-67
2021/11/29 06:09:20;;;;;;;1.42;1.23;;;;;;;;;;5051746;28;20059;-66
2021/11/29 06:11:46;;;;;;;1.40;1.20;;;;;;;;;;5052271;28;20069;-67
2021/11/29 06:14:12;;;;;;;1.13;0.95;;;;;;;;;;5052232;28;20076;-67
2021/11/29 06:16:38;;;;;;;1.80;1.63;;;;;;;;;;5051296;28;20017;-66
2021/11/29 06:19:04;;;;;;;2.20;1.52;;;;;;;;;;5052382;28;20025;-66
2021/11/29 06:21:30;;;;;;;1.50;1.35;;;;;;;;;;5051113;28;20025;-68
2021/11/29 06:23:56;;;;;;;1.45;1.30;;;;;;;;;;5052132;28;20021;-66
2021/11/29 06:26:23;;;;;;;1.25;1.15;;;;;;;;;;5051329;28;20040;-64
2021/11/29 06:28:49;;;;;;;2.13;1.27;;;;;;;;;;5046445;28;20037;-62
2021/11/29 06:31:15;;;;;;;1.90;1.40;;;;;;;;;;5049230;28;20032;-63
2021/11/29 06:33:42;;;;;;;4.07;1.80;;;;;;;;;;5051028;28;20032;-69
2021/11/29 06:36:08;;;;;;;3.90;1.33;;;;;;;;;;5052065;28;20025;-66
2021/11/29 06:38:34;;;;;;;1.90;1.27;;;;;;;;;;5050893;28;20137;-65
2021/11/29 06:41:00;;;;;;;4.13;1.40;;;;;;;;;;5051964;28;20029;-65
2021/11/29 06:43:28;;;;;;;4.20;1.52;;;;;;;;;;5050654;28;20032;-65
2021/11/29 06:45:55;;;;;;;5.10;1.10;;;;;;;;;;5051554;28;20025;-65
2021/11/29 06:48:21;;;;;;;2.30;1.48;;;;;;;;;;5051178;28;20112;-65
2021/11/29 06:50:47;;;;;;;2.95;1.50;;;;;;;;;;5051686;28;20370;-67
2021/11/29 06:53:15;;;;;;;6.10;1.63;;;;;;;;;;5051752;28;20108;-65
2021/11/29 06:55:43;;;;;;;3.58;1.58;;;;;;;;;;5057307;28;20025;-61
2021/11/29 06:58:09;;;;;;;8.45;1.55;;;;;;;;;;5056938;28;20037;-62
2021/11/29 07:00:35;;;;;;;7.63;1.75;;;;;;;;;;5056501;28;20033;-61
2021/11/29 07:03:01;;;;;;;2.95;1.73;;;;;;;;;;5057783;28;20056;-63
2021/11/29 07:05:28;;;;;;;3.78;2.08;;;;;;;;;;5090019;28;20025;-61
2021/11/29 07:07:55;;;;;;;8.10;1.42;;;;;;;;;;5059256;28;20103;-61
2021/11/29 07:10:25;;;;;;;4.80;1.77;;;;;;;;;;5075410;28;20025;-61
2021/11/29 07:12:53;;;;;;;3.75;1.50;;;;;;;;;;5077292;28;20031;-63
2021/11/29 07:15:19;;;;;;;3.88;1.70;;;;;;;;;;5077873;28;20036;-61
2021/11/29 07:17:45;;;;;;;6.95;2.15;;;;;;;;;;5077047;28;20032;-62
2021/11/29 07:20:11;;;;;;;8.70;2.20;;;;;;;;;;5077693;28;20024;-62
2021/11/29 07:22:37;;;;;;;3.75;1.65;;;;;;;;;;5056740;28;20017;-62
2021/11/29 07:25:04;;;;;;;5.15;1.65;;;;;;;;;;5052012;28;20036;-61
2021/11/29 07:27:31;;;;;;;4.00;1.40;;;;;;;;;;5056828;28;20082;-65
2021/11/29 07:29:58;;;;;;;6.32;1.48;;;;;;;;;;5066465;28;20027;-65
2021/11/29 07:32:25;;;;;;;4.80;1.55;;;;;;;;;;5061845;28;20477;-64
2021/11/29 07:34:52;;;;;;;2.05;1.20;;;;;;;;;;5068140;28;20036;-64
2021/11/29 07:37:20;;;;;;;5.88;2.30;;;;;;;;;;5055692;28;20055;-62
2021/11/29 07:39:47;;;;;;;4.80;2.08;;;;;;;;;;5107331;28;20425;-62
2021/11/29 07:42:13;;;;;;;4.68;1.70;;;;;;;;;;5073043;28;20028;-62
2021/11/29 07:44:41;;;;;;;5.78;1.55;;;;;;;;;;5062421;28;20579;-62
2021/11/29 07:47:07;;;;;;;3.97;1.63;;;;;;;;;;5061222;28;20025;-64
2021/11/29 07:49:33;;;;;;;3.17;1.48;;;;;;;;;;5057071;28;20094;-62
2021/11/29 07:52:00;;;;;;;3.83;1.33;;;;;;;;;;5054635;28;20037;-63
2021/11/29 07:54:27;;;;;;;5.00;1.60;;;;;;;;;;5056123;28;20083;-62
2021/11/29 07:56:53;;;;;;;5.43;1.60;;;;;;;;;;5057530;28;20432;-62
2021/11/29 07:59:25;;;;;;;3.97;1.40;;;;;;;;;;5057307;28;20462;-61
2021/11/29 08:01:51;;;;;;;3.33;1.20;;;;;;;;;;5056879;28;20043;-63
2021/11/29 08:04:17;;;;;;;6.68;1.77;;;;;;;;;;5056725;28;20028;-62
2021/11/29 08:06:43;;;;;;;2.45;1.63;;;;;;;;;;5056243;28;20441;-62
2021/11/29 08:09:09;;;;;;;3.67;1.50;;;;;;;;;;5048503;28;20367;-63
2021/11/29 08:11:36;;;;;;;2.63;1.33;;;;;;;;;;5050967;28;20056;-62
2021/11/29 08:14:02;;;;;;;4.70;1.20;;;;;;;;;;5054043;28;20033;-62
2021/11/29 08:16:28;;;;;;;5.95;1.83;;;;;;;;;;5052218;28;20025;-62
2021/11/29 08:18:54;;;;;;;5.43;1.38;;;;;;;;;;5053743;28;20044;-63
2021/11/29 08:21:27;;;;;;;18.42;2.45;;;;;;;;;;5054120;28;20082;-60
2021/11/29 08:23:53;;;;;;;4.90;1.05;;;;;;;;;;5051940;28;20056;-62
2021/11/29 08:26:19;;;;;;;2.13;1.40;;;;;;;;;;5053005;28;20351;-63
2021/11/29 08:28:45;;;;;;;3.13;1.35;;;;;;;;;;5052087;28;20078;-62
2021/11/29 08:31:11;;;;;;;4.05;1.55;;;;;;;;;;5053364;28;20033;-63
2021/11/29 08:33:37;;;;;;;3.00;1.38;;;;;;;;;;5052347;28;20029;-62
2021/11/29 08:36:03;;;;;;;5.82;1.88;;;;;;;;;;5054063;28;20078;-62
2021/11/29 08:38:29;;;;;;;4.82;1.60;;;;;;;;;;5049196;28;20381;-62
2021/11/29 08:40:56;;;;;;;3.70;1.17;;;;;;;;;;5052864;28;20064;-64
2021/11/29 08:43:28;;;;;;;4.65;1.40;;;;;;;;;;5052475;28;20029;-61
2021/11/29 08:45:54;;;;;;;3.53;1.42;;;;;;;;;;5053527;28;20390;-65
2021/11/29 08:48:24;;;;;;;6.05;2.25;;;;;;;;;;5053361;28;20032;-64
2021/11/29 08:50:52;;;;;;;3.08;1.20;;;;;;;;;;5051649;28;20037;-63
2021/11/29 08:53:20;;;;;;;2.50;1.27;;;;;;;;;;5053008;28;20028;-63
2021/11/29 08:55:46;;;;;;;1.88;1.33;;;;;;;;;;5052160;28;20032;-64
2021/11/29 08:58:12;;;;;;;2.40;1.23;;;;;;;;;;5052961;28;20087;-63
2021/11/29 09:00:40;;;;;;;2.42;1.20;;;;;;;;;;5052212;28;20504;-64
2021/11/29 09:03:08;;;;;;;3.42;1.27;;;;;;;;;;5051708;28;20045;-63
2021/11/29 09:05:38;;;;;;;2.63;1.10;;;;;;;;;;5050953;28;20104;-63
2021/11/29 09:08:05;;;;;;;3.50;1.10;;;;;;;;;;5051073;28;20035;-63
2021/11/29 09:10:31;;;;;;;1.52;1.30;;;;;;;;;;5050661;28;20025;-64
2021/11/29 09:12:57;;;;;;;5.38;1.20;;;;;;;;;;5052210;28;20108;-64
2021/11/29 09:15:26;;;;;;;1.17;1.00;;;;;;;;;;5052074;28;20033;-61
2021/11/29 09:17:52;;;;;;;3.53;1.45;;;;;;;;;;5052330;28;20086;-64
2021/11/29 09:20:21;;;;;;;2.78;1.40;;;;;;;;;;5052464;28;20041;-64
2021/11/29 09:22:48;;;;;;;3.47;1.02;;;;;;;;;;5052106;28;20074;-64
2021/11/29 09:25:15;;;;;;;2.88;1.23;;;;;;;;;;5052649;28;20025;-64
2021/11/29 09:27:43;;;;;;;1.75;1.35;;;;;;;;;;5051384;28;20043;-63
2021/11/29 09:30:10;;;;;;;1.50;1.10;;;;;;;;;;5052943;28;20459;-60
2021/11/29 09:32:37;;;;;;;3.28;1.30;;;;;;;;;;5050334;28;20029;-60
2021/11/29 09:35:07;;;;;;;2.38;1.10;;;;;;;;;;5052037;28;20439;-60
2021/11/29 09:37:36;;;;;;;4.55;1.35;;;;;;;;;;5055786;28;20044;-61
2021/11/29 09:40:03;;;;;;;3.83;1.20;;;;;;;;;;5065014;28;20032;-63
2021/11/29 09:42:29;;;;;;;5.53;1.42;;;;;;;;;;5062282;28;20473;-65
2021/11/29 09:44:55;;;;;;;2.75;1.27;;;;;;;;;;5049883;28;20040;-62
2021/11/29 09:47:22;;;;;;;4.70;1.38;;;;;;;;;;5051854;28;20498;-63
2021/11/29 09:49:50;;;;;;;3.55;1.40;;;;;;;;;;5051219;28;20025;-65
2021/11/29 09:52:16;;;;;;;4.15;1.63;;;;;;;;;;5052308;28;20025;-65
2021/11/29 09:54:43;;;;;;;6.03;1.30;;;;;;;;;;5051261;28;20055;-65
2021/11/29 09:57:10;;;;;;;4.20;1.52;;;;;;;;;;5052019;28;20033;-66
2021/11/29 09:59:36;;;;;;;4.32;1.52;;;;;;;;;;5050457;28;20025;-62
2021/11/29 10:02:07;;;;;;;2.65;1.30;;;;;;;;;;5051424;28;20029;-63
2021/11/29 10:04:33;;;;;;;1.65;1.00;;;;;;;;;;5051250;28;20112;-63
2021/11/29 10:07:03;;;;;;;2.05;1.15;;;;;;;;;;5051659;28;20151;-62
2021/11/29 10:09:34;;;;;;;3.15;1.00;;;;;;;;;;5062418;28;20028;-62
2021/11/29 10:12:09;;;;;;;2.63;1.03;;;;;;;;;;5056058;28;20032;-62
2021/11/29 10:14:36;;;;;;;2.20;1.00;;;;;;;;;;5050199;28;20037;-63
2021/11/29 10:17:02;;;;;;;5.75;1.73;;;;;;;;;;5051565;28;20028;-63
2021/11/29 10:19:28;;;;;;;2.97;1.40;;;;;;;;;;5050895;28;20028;-61
2021/11/29 10:22:10;;;;;;;3.70;1.70;;;;;;;;;;5051412;28;20041;-63
2021/11/29 10:24:36;;;;;;;;;;;;;;;;;;5051449;28;20108;-61
2021/11/29 10:27:02;;;;;;;2.78;1.15;;;;;;;;;;5048159;28;20035;-65
2021/11/29 10:29:30;;;;;;;5.97;1.40;;;;;;;;;;5047703;28;20514;-61
2021/11/29 10:31:57;;;;;;;3.05;1.00;;;;;;;;;;5050011;28;20033;-63
2021/11/29 10:34:28;;;;;;;2.40;1.20;;;;;;;;;;5051384;28;20029;-63
2021/11/29 10:36:58;;;;;;;7.43;1.20;;;;;;;;;;5051170;28;20072;-63
2021/11/29 10:39:25;;;;;;;3.03;1.08;;;;;;;;;;5062450;28;20044;-63
2021/11/29 10:41:54;;;;;;;2.45;0.80;;;;;;;;;;5071116;28;20028;-63
2021/11/29 10:44:25;;;;;;;1.35;0.90;;;;;;;;;;5067856;28;20409;-63
2021/11/29 10:46:56;;;;;;;3.53;1.67;;;;;;;;;;5051134;28;20078;-62
2021/11/29 10:49:24;;;;;;;2.80;1.27;;;;;;;;;;5049514;28;20044;-63
2021/11/29 10:51:52;;;;;;;1.73;1.25;;;;;;;;;;5050532;28;20041;-62
2021/11/29 10:54:20;;;;;;;4.95;0.73;;;;;;;;;;5049651;28;20355;-63
2021/11/29 10:56:47;;;;;;;2.30;0.82;;;;;;;;;;5050254;28;20018;-63
2021/11/29 10:59:17;;;;;;;2.05;1.30;;;;;;;;;;5050942;28;20025;-63
2021/11/29 11:01:45;;;;;;;2.40;0.90;;;;;;;;;;5050297;28;20078;-64
2021/11/29 11:04:12;;;;;;;1.40;1.00;;;;;;;;;;5050705;28;20032;-63
2021/11/29 11:06:46;;;;;;;4.07;0.90;;;;;;;;;;5050204;28;20021;-63
2021/11/29 11:09:13;;;;;;;2.03;1.05;;;;;;;;;;5045536;28;20032;-63
2021/11/29 11:11:41;;;;;;;2.63;1.10;;;;;;;;;;5050091;28;20037;-62
2021/11/29 11:14:09;;;;;;;4.75;1.20;;;;;;;;;;5050825;28;20431;-63
2021/11/29 11:16:46;;;;;;;1.98;0.93;;;;;;;;;;5050316;28;20421;-63
2021/11/29 11:19:20;;;;;;;1.95;1.00;;;;;;;;;;5050509;28;20115;-62
2021/11/29 11:21:47;;;;;;;3.38;1.27;;;;;;;;;;5048259;28;20124;-63
2021/11/29 11:24:27;;;;;;;4.00;1.30;;;;;;;;;;5050257;28;20021;-63
2021/11/29 11:26:57;;;;;;;6.85;1.27;;;;;;;;;;5050178;28;20099;-66
2021/11/29 11:29:35;;;;;;;3.40;0.73;;;;;;;;;;5050526;28;20037;-64
2021/11/29 11:32:08;;;;;;;1.88;0.80;;;;;;;;;;5051012;28;20397;-64
2021/11/29 11:34:36;;;;;;;3.20;0.90;;;;;;;;;;5050186;28;20025;-64
2021/11/29 11:37:02;;;;;;;2.10;1.02;;;;;;;;;;5051422;28;20181;-65
2021/11/29 11:39:31;;;;;;;2.63;1.08;;;;;;;;;;5054398;28;20120;-61
2021/11/29 11:41:57;;;;;;;3.17;1.25;;;;;;;;;;5103003;28;20378;-64
2021/11/29 11:44:27;;;;;;;10.73;1.73;;;;;;;;;;5073033;28;20155;-63
2021/11/29 11:46:57;;;;;;;8.38;1.90;;;;;;;;;;5074189;28;20040;-64
2021/11/29 11:49:23;;;;;;;2.35;1.00;;;;;;;;;;5074685;28;20033;-64
2021/11/29 11:51:49;;;;;;;2.38;0.80;;;;;;;;;;5073388;28;20029;-63
2021/11/29 11:54:16;;;;;;;2.80;1.02;;;;;;;;;;5058424;28;20021;-64
2021/11/29 11:56:42;;;;;;;1.45;1.00;;;;;;;;;;5053349;28;20037;-64
2021/11/29 11:59:13;;;;;;;3.40;0.93;;;;;;;;;;5054422;28;20048;-62
2021/11/29 12:01:43;;;;;;;4.63;1.15;;;;;;;;;;5053267;28;20387;-67
2021/11/29 12:04:17;;;;;;;2.60;0.75;;;;;;;;;;5054085;28;20033;-62
2021/11/29 12:06:48;;;;;;;4.07;1.65;;;;;;;;;;5053465;28;20441;-65
2021/11/29 12:09:14;;;;;;;2.58;0.73;;;;;;;;;;5058889;28;20021;-61
2021/11/29 12:11:49;;;;;;;1.98;0.73;;;;;;;;;;5053194;28;20029;-65
2021/11/29 12:14:18;;;;;;;1.38;0.77;;;;;;;;;;5053072;28;20106;-61
2021/11/29 12:16:45;;;;;;;2.25;0.90;;;;;;;;;;5053058;28;20032;-62
2021/11/29 12:19:26;;;;;;;3.03;0.73;;;;;;;;;;5053759;28;20243;-63
2021/11/29 12:21:56;;;;;;;4.03;1.20;;;;;;;;;;5052675;28;20409;-62
2021/11/29 12:24:25;;;;;;;2.50;0.80;;;;;;;;;;5052943;28;20375;-64
2021/11/29 12:26:54;;;;;;;1.88;0.77;;;;;;;;;;5052883;28;20017;-60
2021/11/29 12:29:24;;;;;;;2.65;1.10;;;;;;;;;;5051651;28;20029;-63
2021/11/29 12:32:02;;;;;;;3.53;0.90;;;;;;;;;;5052480;28;20033;-63
2021/11/29 12:34:47;;;;;;;3.05;1.00;;;;;;;;;;5042952;28;20044;-63
2021/11/29 12:37:33;;;;;;;5.18;1.00;;;;;;;;;;5038873;28;20415;-63
2021/11/29 12:40:05;;;;;;;2.47;1.10;;;;;;;;;;5052318;28;20029;-63
2021/11/29 12:42:34;;;;;;;1.63;0.90;;;;;;;;;;5051908;28;20052;-61
2021/11/29 12:45:10;;;;;;;5.03;0.80;;;;;;;;;;5053336;28;20029;-62
2021/11/29 12:47:51;;;;;;;3.70;1.45;;;;;;;;;;5052180;28;20130;-62
2021/11/29 12:50:28;;;;;;;6.20;0.98;;;;;;;;;;5053057;28;20079;-63
2021/11/29 12:53:07;;;;;;;1.05;0.80;;;;;;;;;;5051962;28;20056;-64
2021/11/29 12:55:34;;;;;;;2.63;0.90;;;;;;;;;;5051976;28;20116;-63
2021/11/29 12:58:12;;;;;;;2.08;1.10;;;;;;;;;;5053092;28;20091;-65
2021/11/29 13:00:42;;;;;;;2.17;0.90;;;;;;;;;;5051898;28;20146;-64
2021/11/29 13:03:09;;;;;;;2.58;0.93;;;;;;;;;;5052849;28;20039;-64
2021/11/29 13:05:40;;;;;;;3.25;0.80;;;;;;;;;;5051752;28;20414;-63
2021/11/29 13:08:09;;;;;;;1.02;0.70;;;;;;;;;;5061750;28;20024;-64
2021/11/29 13:10:54;;;;;;;1.92;0.90;;;;;;;;;;5052145;28;20025;-63
2021/11/29 13:13:38;;;;;;;3.78;1.00;;;;;;;;;;5052145;28;20025;-63
2021/11/29 13:16:07;;;;;;;3.13;0.90;;;;;;;;;;5052009;28;20366;-63
2021/11/29 13:18:45;;;;;;;1.42;0.85;;;;;;;;;;5051886;28;20024;-61
2021/11/29 13:21:14;;;;;;;6.03;1.50;;;;;;;;;;5058983;28;20024;-64
2021/11/29 13:23:47;;;;;;;2.20;1.20;;;;;;;;;;5063343;28;20055;-64
2021/11/29 13:26:13;;;;;;;2.95;1.17;;;;;;;;;;5066965;28;20111;-64
2021/11/29 13:28:42;;;;;;;1.33;0.80;;;;;;;;;;5054453;28;20099;-61
2021/11/29 13:31:08;;;;;;;1.85;0.77;;;;;;;;;;5055351;28;20021;-63
2021/11/29 13:33:36;;;;;;;4.35;0.90;;;;;;;;;;5068367;28;20017;-62
2021/11/29 13:36:04;;;;;;;3.58;0.80;;;;;;;;;;5061137;28;20025;-63
2021/11/29 13:38:32;;;;;;;1.00;0.82;;;;;;;;;;5057105;28;20119;-62
2021/11/29 13:40:58;;;;;;;7.13;0.90;;;;;;;;;;5046721;28;20029;-63
2021/11/29 13:43:27;;;;;;;0.85;0.77;;;;;;;;;;5052276;28;20065;-63
2021/11/29 13:45:53;;;;;;;1.55;0.80;;;;;;;;;;5056139;28;20032;-63
2021/11/29 13:48:23;;;;;;;3.08;0.93;;;;;;;;;;5063106;28;20021;-63
2021/11/29 13:50:52;;;;;;;3.38;1.25;;;;;;;;;;5062839;28;20046;-63
2021/11/29 13:53:20;;;;;;;3.28;1.27;;;;;;;;;;5055430;28;20555;-61
2021/11/29 13:55:49;;;;;;;1.83;1.05;;;;;;;;;;5052262;28;20032;-63
2021/11/29 13:58:18;;;;;;;1.95;1.02;;;;;;;;;;5067917;28;20021;-63
2021/11/29 14:00:46;;;;;;;3.47;1.23;;;;;;;;;;5059024;28;20017;-63
2021/11/29 14:03:12;;;;;;;3.22;0.90;;;;;;;;;;5057573;28;20032;-62
2021/11/29 14:05:41;;;;;;;3.10;1.10;;;;;;;;;;5052277;28;20116;-63
2021/11/29 14:08:08;;;;;;;1.67;1.20;;;;;;;;;;5062774;28;20036;-62
2021/11/29 14:10:40;;;;;;;1.75;0.80;;;;;;;;;;5058256;28;20024;-61
2021/11/29 14:13:08;;;;;;;1.98;1.15;;;;;;;;;;5067573;28;20017;-62
2021/11/29 14:15:54;;;;;;;2.70;0.95;;;;;;;;;;5056440;28;20083;-60
2021/11/29 14:18:24;;;;;;;4.40;1.50;;;;;;;;;;5065083;28;20017;-62
2021/11/29 14:20:55;;;;;;;1.40;0.80;;;;;;;;;;5053883;28;20029;-62
2021/11/29 14:23:21;;;;;;;2.17;0.80;;;;;;;;;;5062088;28;20088;-62
2021/11/29 14:25:47;;;;;;;1.15;0.80;;;;;;;;;;5061007;28;20033;-62
2021/11/29 14:28:14;;;;;;;3.08;1.08;;;;;;;;;;5063935;28;20032;-62
2021/11/29 14:30:40;;;;;;;1.02;0.60;;;;;;;;;;5053961;28;20079;-63
2021/11/29 14:33:06;;;;;;;2.05;0.95;;;;;;;;;;5051075;28;20027;-63
2021/11/29 14:35:38;;;;;;;1.48;0.90;;;;;;;;;;5056993;28;20024;-60
2021/11/29 14:38:04;;;;;;;;;;;;;;;;;;5051825;28;20126;-63
2021/11/29 14:40:30;;;;;;;1.30;0.93;;;;;;;;;;5047252;28;19923;-63
2021/11/29 14:42:57;;;;;;;2.38;0.85;;;;;;;;;;5051728;28;20029;-64
2021/11/29 14:45:24;;;;;;;4.47;1.20;;;;;;;;;;5056445;28;20037;-63